createdAt,value
2018-02-07T00:00:50.760Z,22.67
2018-02-07T00:03:24.908Z,21.17
2018-02-07T00:05:58.903Z,22.07
2018-02-07T00:08:34.077Z,23.43
2018-02-07T00:11:07.781Z,21.10
2018-02-07T00:13:41.884Z,22.67
2018-02-07T00:16:15.905Z,26.27
2018-02-07T00:18:50.297Z,23.53
2018-02-07T00:21:24.059Z,22.33
2018-02-07T00:23:58.858Z,22.87
2018-02-07T00:26:32.818Z,20.80
2018-02-07T00:29:06.714Z,21.53
2018-02-07T00:31:41.452Z,22.27
2018-02-07T00:34:15.785Z,22.80
2018-02-07T00:36:50.608Z,21.77
2018-02-07T00:39:25.439Z,22.40
2018-02-07T00:41:59.880Z,21.57
2018-02-07T00:44:34.086Z,23.53
2018-02-07T00:47:08.783Z,24.57
2018-02-07T00:49:43.950Z,21.50
2018-02-07T00:52:18.679Z,21.00
2018-02-07T00:54:52.971Z,21.30
2018-02-07T00:57:27.540Z,24.27
2018-02-07T01:00:03.269Z,22.30
2018-02-07T01:02:38.089Z,22.43
2018-02-07T01:05:12.341Z,22.27
2018-02-07T01:07:46.322Z,22.50
2018-02-07T01:10:20.744Z,21.37
2018-02-07T01:12:55.292Z,21.30
2018-02-07T01:15:29.729Z,21.90
2018-02-07T01:18:04.411Z,22.77
2018-02-07T01:20:38.524Z,21.40
2018-02-07T01:23:13.290Z,25.00
2018-02-07T01:25:48.131Z,23.87
2018-02-07T01:28:22.492Z,21.87
2018-02-07T01:30:57.257Z,21.87
2018-02-07T01:33:31.265Z,21.30
2018-02-07T01:36:05.347Z,21.87
2018-02-07T01:38:39.783Z,21.43
2018-02-07T01:41:13.807Z,22.07
2018-02-07T01:43:48.198Z,23.90
2018-02-07T01:46:22.255Z,21.17
2018-02-07T01:48:56.940Z,22.07
2018-02-07T01:51:30.996Z,21.50
2018-02-07T01:54:04.938Z,21.17
2018-02-07T01:56:38.952Z,21.63
2018-02-07T01:59:12.582Z,22.70
2018-02-07T02:01:46.479Z,20.33
2018-02-07T02:04:20.514Z,20.50
2018-02-07T02:06:54.394Z,19.90
2018-02-07T02:09:28.180Z,19.20
2018-02-07T02:12:02.115Z,22.37
2018-02-07T02:14:36.124Z,19.73
2018-02-07T02:17:10.982Z,21.07
2018-02-07T02:19:45.296Z,19.77
2018-02-07T02:22:19.831Z,19.30
2018-02-07T02:24:53.983Z,20.03
2018-02-07T02:27:28.758Z,20.63
2018-02-07T02:30:04.078Z,21.73
2018-02-07T02:32:38.789Z,20.07
2018-02-07T02:35:13.035Z,20.50
2018-02-07T02:37:47.806Z,21.97
2018-02-07T02:40:21.803Z,21.10
2018-02-07T02:42:55.579Z,20.20
2018-02-07T02:45:29.753Z,20.43
2018-02-07T02:48:03.752Z,20.77
2018-02-07T02:50:37.562Z,19.53
2018-02-07T02:53:11.579Z,21.57
2018-02-07T02:55:45.355Z,20.97
2018-02-07T02:58:19.026Z,20.67
2018-02-07T03:00:52.845Z,20.93
2018-02-07T03:03:26.889Z,20.13
2018-02-07T03:06:02.279Z,19.53
2018-02-07T03:08:36.425Z,18.67
2018-02-07T03:11:11.091Z,20.60
2018-02-07T03:13:46.091Z,20.13
2018-02-07T03:16:21.393Z,20.40
2018-02-07T03:18:56.469Z,22.77
2018-02-07T03:21:30.563Z,20.43
2018-02-07T03:24:04.330Z,20.50
2018-02-07T03:26:39.689Z,21.23
2018-02-07T03:29:14.275Z,20.80
2018-02-07T03:31:48.420Z,20.80
2018-02-07T03:34:23.668Z,21.87
2018-02-07T03:36:57.707Z,20.80
2018-02-07T03:39:31.692Z,22.57
2018-02-07T03:42:05.493Z,22.90
2018-02-07T03:44:39.364Z,21.70
2018-02-07T03:47:13.982Z,21.00
2018-02-07T03:49:48.369Z,22.40
2018-02-07T03:52:22.372Z,21.63
2018-02-07T03:54:56.346Z,20.03
2018-02-07T03:57:31.040Z,20.63
2018-02-07T04:00:06.971Z,20.70
2018-02-07T04:02:41.174Z,21.13
2018-02-07T04:05:15.934Z,21.73
2018-02-07T04:07:49.660Z,20.43
2018-02-07T04:10:24.029Z,22.50
2018-02-07T04:12:58.176Z,21.03
2018-02-07T04:15:32.791Z,21.83
2018-02-07T04:18:06.432Z,21.70
2018-02-07T04:20:40.781Z,20.53
2018-02-07T04:23:16.302Z,20.03
2018-02-07T04:25:51.054Z,22.77
2018-02-07T04:28:25.139Z,21.23
2018-02-07T04:30:59.320Z,21.73
2018-02-07T04:33:33.847Z,20.70
2018-02-07T04:36:07.892Z,22.43
2018-02-07T04:38:41.643Z,22.37
2018-02-07T04:41:16.068Z,21.67
2018-02-07T04:43:49.783Z,21.53
2018-02-07T04:46:23.642Z,22.83
2018-02-07T04:48:57.499Z,20.80
2018-02-07T04:51:31.642Z,21.70
2018-02-07T04:54:06.149Z,21.03
2018-02-07T04:56:40.309Z,22.17
2018-02-07T04:59:14.124Z,22.20
2018-02-07T05:01:47.927Z,22.30
2018-02-07T05:04:22.593Z,22.87
2018-02-07T05:06:57.003Z,22.30
2018-02-07T05:09:30.929Z,22.30
2018-02-07T05:12:05.620Z,23.07
2018-02-07T05:14:39.491Z,21.60
2018-02-07T05:17:13.371Z,21.57
2018-02-07T05:19:46.985Z,22.00
2018-02-07T05:22:20.801Z,22.63
2018-02-07T05:24:55.597Z,21.63
2018-02-07T05:27:31.041Z,21.10
2018-02-07T05:30:05.365Z,21.80
2018-02-07T05:32:40.002Z,22.60
2018-02-07T05:35:14.128Z,21.73
2018-02-07T05:37:48.418Z,21.17
2018-02-07T05:40:22.556Z,22.07
2018-02-07T05:42:56.620Z,21.87
2018-02-07T05:45:30.538Z,20.80
2018-02-07T05:48:05.284Z,22.40
2018-02-07T05:50:39.633Z,20.70
2018-02-07T05:53:14.864Z,23.60
2018-02-07T05:55:49.160Z,22.30
2018-02-07T05:58:24.405Z,22.53
2018-02-07T06:00:58.383Z,21.27
2018-02-07T06:03:32.280Z,22.00
2018-02-07T06:06:07.099Z,22.93
2018-02-07T06:08:41.254Z,23.67
2018-02-07T06:11:15.191Z,22.43
2018-02-07T06:13:49.400Z,22.80
2018-02-07T06:16:23.235Z,22.10
2018-02-07T06:18:57.295Z,22.07
2018-02-07T06:21:31.919Z,22.20
2018-02-07T06:24:06.339Z,22.17
2018-02-07T06:26:41.045Z,21.77
2018-02-07T06:29:15.648Z,22.37
2018-02-07T06:31:49.599Z,21.93
2018-02-07T06:34:24.195Z,21.77
2018-02-07T06:36:58.181Z,23.43
2018-02-07T06:39:33.657Z,22.33
2018-02-07T06:42:07.814Z,22.67
2018-02-07T06:44:42.708Z,21.83
2018-02-07T06:47:17.036Z,22.57
2018-02-07T06:49:51.036Z,22.33
2018-02-07T06:52:25.397Z,23.37
2018-02-07T06:54:59.694Z,22.00
2018-02-07T06:57:34.021Z,22.67
2018-02-07T07:00:08.318Z,23.47
2018-02-07T07:02:43.437Z,22.93
2018-02-07T07:05:17.748Z,24.90
2018-02-07T07:07:51.679Z,22.57
2018-02-07T07:10:25.484Z,22.23
2018-02-07T07:12:59.378Z,21.37
2018-02-07T07:15:33.273Z,23.70
2018-02-07T07:18:07.047Z,21.87
2018-02-07T07:20:40.815Z,23.20
2018-02-07T07:23:15.818Z,22.93
2018-02-07T07:25:50.090Z,22.10
2018-02-07T07:28:24.048Z,22.70
2018-02-07T07:30:58.571Z,22.80
2018-02-07T07:33:33.257Z,22.53
2018-02-07T07:36:07.872Z,22.80
2018-02-07T07:38:41.921Z,22.73
2018-02-07T07:41:16.699Z,22.80
2018-02-07T07:43:50.650Z,22.57
2018-02-07T07:46:24.620Z,23.27
2018-02-07T07:48:59.154Z,23.37
2018-02-07T07:51:33.019Z,23.40
2018-02-07T07:54:06.979Z,23.70
2018-02-07T07:56:41.102Z,23.83
2018-02-07T07:59:15.448Z,24.67
2018-02-07T08:01:50.002Z,23.30
2018-02-07T08:04:25.316Z,23.17
2018-02-07T08:06:59.174Z,23.90
2018-02-07T08:09:33.683Z,23.83
2018-02-07T08:12:08.392Z,23.07
2018-02-07T08:14:42.550Z,22.80
2018-02-07T08:17:17.033Z,22.53
2018-02-07T08:19:51.112Z,23.53
2018-02-07T08:22:25.183Z,24.00
2018-02-07T08:24:59.752Z,24.07
2018-02-07T08:27:33.915Z,24.07
2018-02-07T08:30:08.300Z,24.47
2018-02-07T08:32:42.933Z,24.20
2018-02-07T08:35:17.018Z,25.20
2018-02-07T08:37:51.159Z,24.40
2018-02-07T08:40:25.092Z,24.13
2018-02-07T08:42:59.814Z,24.60
2018-02-07T08:45:33.843Z,25.90
2018-02-07T08:48:08.641Z,25.23
2018-02-07T08:50:43.553Z,24.70
2018-02-07T08:53:17.792Z,25.43
2018-02-07T08:55:52.581Z,24.17
2018-02-07T08:58:26.762Z,24.37
2018-02-07T09:01:00.507Z,24.43
2018-02-07T09:03:35.077Z,25.50
2018-02-07T09:06:09.188Z,24.13
2018-02-07T09:08:44.267Z,23.57
2018-02-07T09:11:18.501Z,24.07
2018-02-07T09:13:52.766Z,25.00
2018-02-07T09:16:26.657Z,25.10
2018-02-07T09:19:00.571Z,24.23
2018-02-07T09:21:35.681Z,24.63
2018-02-07T09:24:09.838Z,25.10
2018-02-07T09:26:43.986Z,24.60
2018-02-07T09:29:19.459Z,25.43
2018-02-07T09:31:53.680Z,24.30
2018-02-07T09:34:27.474Z,24.83
2018-02-07T09:37:02.081Z,25.07
2018-02-07T09:39:36.470Z,25.03
2018-02-07T09:42:11.122Z,24.50
2018-02-07T09:44:46.488Z,24.13
2018-02-07T09:47:21.491Z,25.10
2018-02-07T09:49:55.838Z,24.47
2018-02-07T09:52:29.758Z,24.97
2018-02-07T09:55:04.275Z,25.73
2018-02-07T09:57:38.966Z,24.67
2018-02-07T10:00:13.400Z,25.23
2018-02-07T10:02:48.004Z,26.27
2018-02-07T10:05:21.881Z,25.50
2018-02-07T10:07:55.824Z,25.87
2018-02-07T10:10:29.813Z,26.00
2018-02-07T10:13:05.068Z,25.47
2018-02-07T10:15:39.104Z,26.10
2018-02-07T10:18:13.343Z,25.00
2018-02-07T10:20:47.600Z,24.27
2018-02-07T10:23:21.950Z,25.30
2018-02-07T10:25:55.643Z,25.73
2018-02-07T10:28:29.486Z,24.73
2018-02-07T10:31:03.501Z,24.27
2018-02-07T10:33:38.318Z,24.20
2018-02-07T10:36:13.299Z,23.53
2018-02-07T10:38:47.248Z,25.47
2018-02-07T10:41:22.087Z,25.13
2018-02-07T10:43:56.127Z,25.20
2018-02-07T10:46:30.080Z,25.13
2018-02-07T10:49:04.598Z,25.27
2018-02-07T10:51:39.645Z,25.07
2018-02-07T10:54:14.573Z,24.63
2018-02-07T10:56:48.956Z,24.83
2018-02-07T10:59:22.686Z,25.90
2018-02-07T11:01:57.764Z,26.03
2018-02-07T11:04:31.743Z,27.03
2018-02-07T11:07:06.498Z,25.47
2018-02-07T11:09:41.281Z,26.60
2018-02-07T11:12:15.582Z,26.97
2018-02-07T11:14:49.250Z,27.03
2018-02-07T11:17:23.199Z,27.90
2018-02-07T11:19:57.040Z,26.70
2018-02-07T11:22:30.910Z,27.53
2018-02-07T11:25:04.682Z,26.30
2018-02-07T11:27:38.727Z,28.23
2018-02-07T11:30:13.132Z,26.87
2018-02-07T11:32:48.224Z,26.27
2018-02-07T11:35:22.292Z,28.70
2018-02-07T11:37:56.146Z,28.20
2018-02-07T11:40:30.759Z,27.17
2018-02-07T11:43:05.200Z,27.90
2018-02-07T11:45:39.519Z,29.33
2018-02-07T11:48:13.491Z,26.90
2018-02-07T11:50:47.328Z,27.80
2018-02-07T11:53:21.170Z,28.17
2018-02-07T11:55:55.140Z,28.07
2018-02-07T11:58:29.237Z,28.17
2018-02-07T12:01:03.214Z,27.77
2018-02-07T12:03:37.207Z,28.27
2018-02-07T12:06:10.946Z,28.27
2018-02-07T12:08:45.052Z,27.87
2018-02-07T12:11:19.574Z,28.63
2018-02-07T12:13:53.808Z,30.43
2018-02-07T12:16:28.320Z,27.80
2018-02-07T12:19:02.448Z,29.17
2018-02-07T12:21:36.973Z,28.73
2018-02-07T12:24:11.404Z,30.17
2018-02-07T12:26:45.410Z,29.40
2018-02-07T12:29:19.213Z,28.47
2018-02-07T12:31:53.135Z,29.97
2018-02-07T12:34:27.024Z,28.83
2018-02-07T12:37:01.523Z,27.93
2018-02-07T12:39:35.710Z,28.83
2018-02-07T12:42:10.268Z,30.03
2018-02-07T12:44:44.647Z,31.20
2018-02-07T12:47:18.930Z,29.40
2018-02-07T12:49:53.154Z,29.47
2018-02-07T12:52:27.167Z,30.07
2018-02-07T12:55:01.310Z,30.73
2018-02-07T12:57:35.446Z,30.13
2018-02-07T13:00:09.403Z,29.80
2018-02-07T13:02:43.210Z,28.37
2018-02-07T13:05:18.023Z,28.80
2018-02-07T13:07:52.096Z,29.47
2018-02-07T13:10:26.239Z,29.37
2018-02-07T13:13:01.044Z,29.53
2018-02-07T13:15:35.141Z,29.87
2018-02-07T13:18:08.891Z,27.60
2018-02-07T13:20:44.039Z,29.70
2018-02-07T13:23:18.823Z,28.50
2018-02-07T13:25:53.680Z,28.93
2018-02-07T13:28:27.899Z,29.23
2018-02-07T13:31:01.796Z,27.47
2018-02-07T13:33:36.390Z,29.13
2018-02-07T13:36:10.480Z,29.10
2018-02-07T13:38:44.334Z,28.00
2018-02-07T13:41:19.146Z,30.07
2018-02-07T13:43:53.101Z,28.97
2018-02-07T13:46:27.133Z,29.07
2018-02-07T13:49:00.808Z,30.43
2018-02-07T13:51:34.606Z,30.70
2018-02-07T13:54:09.725Z,29.77
2018-02-07T13:56:44.572Z,30.33
2018-02-07T13:59:19.459Z,28.67
2018-02-07T14:01:53.760Z,28.67
2018-02-07T14:04:29.040Z,27.90
2018-02-07T14:07:04.403Z,29.77
2018-02-07T14:09:39.327Z,28.77
2018-02-07T14:12:13.698Z,29.00
2018-02-07T14:14:47.408Z,28.47
2018-02-07T14:17:21.551Z,30.73
2018-02-07T14:19:55.592Z,29.73
2018-02-07T14:22:30.310Z,31.47
2018-02-07T14:25:05.311Z,30.13
2018-02-07T14:27:39.650Z,30.23
2018-02-07T14:30:14.253Z,29.93
2018-02-07T14:32:48.842Z,31.50
2018-02-07T14:35:22.603Z,29.83
2018-02-07T14:37:56.604Z,28.77
2018-02-07T14:40:31.224Z,29.33
2018-02-07T14:43:05.408Z,32.37
2018-02-07T14:45:39.351Z,31.33
2018-02-07T14:48:13.223Z,32.80
2018-02-07T14:50:47.119Z,32.30
2018-02-07T14:53:20.934Z,30.87
2018-02-07T14:55:54.670Z,31.60
2018-02-07T14:58:28.336Z,30.63
2018-02-07T15:01:06.158Z,29.80
2018-02-07T15:03:41.546Z,32.83
2018-02-07T15:06:16.229Z,31.57
2018-02-07T15:08:50.628Z,31.40
2018-02-07T15:11:24.955Z,30.87
2018-02-07T15:13:59.722Z,30.40
2018-02-07T15:16:34.216Z,30.53
2018-02-07T15:19:08.372Z,30.10
2018-02-07T15:21:42.282Z,31.27
2018-02-07T15:24:16.149Z,30.63
2018-02-07T15:26:50.009Z,30.60
2018-02-07T15:29:24.155Z,30.80
2018-02-07T15:31:59.344Z,31.60
2018-02-07T15:34:33.426Z,30.97
2018-02-07T15:37:07.264Z,30.13
2018-02-07T15:39:41.203Z,28.60
2018-02-07T15:42:15.954Z,31.77
2018-02-07T15:44:50.025Z,32.10
2018-02-07T15:47:23.809Z,30.80
2018-02-07T15:49:57.783Z,31.20
2018-02-07T15:52:31.615Z,31.80
2018-02-07T15:55:06.338Z,30.83
2018-02-07T15:57:40.576Z,29.10
2018-02-07T16:00:14.466Z,29.67
2018-02-07T16:02:49.268Z,30.53
2018-02-07T16:05:23.658Z,31.23
2018-02-07T16:07:57.455Z,29.80
2018-02-07T16:10:31.252Z,29.67
2018-02-07T16:13:06.746Z,29.83
2018-02-07T16:15:40.514Z,33.70
2018-02-07T16:18:15.389Z,29.50
2018-02-07T16:20:49.698Z,30.23
2018-02-07T16:23:23.717Z,30.43
2018-02-07T16:25:57.783Z,30.63
2018-02-07T16:28:31.731Z,30.80
2018-02-07T16:31:05.696Z,30.63
2018-02-07T16:33:39.663Z,30.33
2018-02-07T16:36:14.390Z,31.00
2018-02-07T16:38:48.590Z,31.77
2018-02-07T16:41:22.735Z,32.90
2018-02-07T16:43:57.206Z,31.23
2018-02-07T16:46:31.270Z,30.13
2018-02-07T16:49:05.380Z,34.03
2018-02-07T16:51:40.294Z,33.30
2018-02-07T16:54:14.323Z,34.70
2018-02-07T16:56:48.214Z,32.93
2018-02-07T16:59:22.124Z,31.30
2018-02-07T17:01:56.182Z,32.63
2018-02-07T17:04:31.058Z,33.53
2018-02-07T17:07:05.325Z,30.40
2018-02-07T17:09:39.259Z,32.60
2018-02-07T17:12:13.357Z,32.33
2018-02-07T17:14:47.117Z,31.97
2018-02-07T17:17:21.059Z,32.33
2018-02-07T17:19:54.949Z,32.20
2018-02-07T17:22:28.752Z,31.33
2018-02-07T17:25:04.042Z,31.47
2018-02-07T17:27:38.227Z,33.60
2018-02-07T17:30:12.311Z,30.73
2018-02-07T17:32:46.183Z,32.03
2018-02-07T17:35:20.464Z,34.33
2018-02-07T17:37:54.716Z,34.50
2018-02-07T17:40:29.640Z,33.80
2018-02-07T17:43:04.058Z,34.03
2018-02-07T17:45:38.206Z,33.53
2018-02-07T17:48:12.814Z,31.67
2018-02-07T17:50:47.644Z,32.77
2018-02-07T17:53:22.718Z,34.10
2018-02-07T17:55:56.598Z,31.00
2018-02-07T17:58:30.819Z,32.53
2018-02-07T18:01:05.516Z,32.17
2018-02-07T18:03:39.641Z,33.30
2018-02-07T18:06:13.791Z,36.50
2018-02-07T18:08:48.279Z,34.33
2018-02-07T18:11:22.417Z,32.30
2018-02-07T18:13:56.249Z,32.83
2018-02-07T18:16:30.259Z,33.60
2018-02-07T18:19:04.335Z,32.77
2018-02-07T18:21:38.818Z,33.47
2018-02-07T18:24:12.983Z,33.77
2018-02-07T18:26:46.792Z,32.37
2018-02-07T18:29:20.651Z,35.30
2018-02-07T18:31:54.401Z,33.90
2018-02-07T18:34:28.130Z,35.23
2018-02-07T18:37:02.573Z,33.60
2018-02-07T18:39:37.846Z,35.33
2018-02-07T18:42:12.960Z,35.07
2018-02-07T18:44:47.220Z,33.83
2018-02-07T18:47:21.188Z,34.10
2018-02-07T18:49:55.111Z,35.30
2018-02-07T18:52:30.336Z,35.03
2018-02-07T18:55:04.522Z,35.30
2018-02-07T18:57:38.388Z,33.87
2018-02-07T19:00:13.326Z,35.70
2018-02-07T19:02:47.419Z,33.33
2018-02-07T19:05:22.356Z,33.50
2018-02-07T19:07:57.375Z,35.97
2018-02-07T19:10:32.355Z,35.60
2018-02-07T19:13:06.760Z,34.80
2018-02-07T19:15:40.747Z,34.17
2018-02-07T19:18:14.660Z,33.10
2018-02-07T19:20:48.552Z,33.83
2018-02-07T19:23:22.697Z,33.63
2018-02-07T19:25:57.181Z,35.97
2018-02-07T19:28:31.207Z,34.57
2018-02-07T19:31:06.028Z,34.47
2018-02-07T19:33:40.304Z,35.27
2018-02-07T19:36:14.046Z,33.03
2018-02-07T19:38:48.474Z,33.33
2018-02-07T19:41:22.776Z,33.30
2018-02-07T19:43:57.287Z,33.57
2018-02-07T19:46:32.134Z,34.57
2018-02-07T19:49:06.284Z,34.27
2018-02-07T19:51:40.351Z,35.23
2018-02-07T19:54:15.390Z,34.53
2018-02-07T19:56:50.921Z,34.70
2018-02-07T19:59:26.166Z,36.10
2018-02-07T20:02:00.572Z,33.40
2018-02-07T20:04:34.656Z,38.30
2018-02-07T20:07:08.823Z,34.27
2018-02-07T20:09:43.775Z,33.97
2018-02-07T20:12:18.047Z,34.63
2018-02-07T20:14:52.101Z,32.63
2018-02-07T20:17:27.636Z,31.40
2018-02-07T20:20:02.660Z,31.60
2018-02-07T20:22:37.147Z,31.50
2018-02-07T20:25:11.785Z,31.57
2018-02-07T20:27:45.840Z,32.60
2018-02-07T20:30:19.862Z,33.60
2018-02-07T20:32:54.567Z,32.20
2018-02-07T20:35:28.696Z,32.50
2018-02-07T20:38:03.213Z,31.97
2018-02-07T20:40:38.824Z,32.83
2018-02-07T20:43:13.172Z,32.77
2018-02-07T20:45:47.196Z,33.10
2018-02-07T20:48:22.518Z,32.63
2018-02-07T20:50:56.805Z,32.27
2018-02-07T20:53:30.699Z,33.90
2018-02-07T20:56:04.664Z,32.70
2018-02-07T20:58:38.496Z,34.93
2018-02-07T21:01:12.253Z,34.47
2018-02-07T21:03:47.086Z,32.70
2018-02-07T21:06:22.127Z,33.83
2018-02-07T21:08:56.241Z,33.50
2018-02-07T21:11:31.244Z,33.23
2018-02-07T21:14:05.574Z,34.50
2018-02-07T21:16:39.496Z,34.60
2018-02-07T21:19:13.660Z,34.90
2018-02-07T21:21:47.504Z,35.73
2018-02-07T21:24:21.264Z,35.10
2018-02-07T21:26:55.281Z,34.90
2018-02-07T21:29:30.064Z,33.50
2018-02-07T21:32:04.385Z,34.77
2018-02-07T21:34:38.641Z,36.13
2018-02-07T21:37:12.379Z,36.13
2018-02-07T21:39:47.141Z,35.60
2018-02-07T21:42:21.469Z,35.90
2018-02-07T21:44:55.391Z,36.73
2018-02-07T21:47:30.016Z,34.97
2018-02-07T21:50:04.175Z,35.93
2018-02-07T21:52:38.075Z,36.83
2018-02-07T21:55:11.947Z,37.53
2018-02-07T21:57:46.126Z,34.77
2018-02-07T22:00:20.927Z,35.43
2018-02-07T22:02:54.971Z,36.67
2018-02-07T22:05:28.913Z,36.70
2018-02-07T22:08:03.565Z,36.60
2018-02-07T22:10:37.622Z,36.53
2018-02-07T22:13:11.458Z,34.40
2018-02-07T22:15:45.716Z,36.37
2018-02-07T22:18:19.547Z,34.77
2018-02-07T22:20:53.889Z,36.10
2018-02-07T22:23:28.254Z,34.63
2018-02-07T22:26:02.319Z,35.43
2018-02-07T22:28:36.174Z,34.20
2018-02-07T22:31:10.194Z,34.67
2018-02-07T22:33:44.712Z,36.67
2018-02-07T22:36:18.871Z,34.47
2018-02-07T22:38:52.721Z,34.70
2018-02-07T22:41:26.750Z,36.67
2018-02-07T22:44:00.757Z,35.90
2018-02-07T22:46:34.513Z,36.10
2018-02-07T22:49:08.225Z,37.70
2018-02-07T22:51:43.211Z,35.70
2018-02-07T22:54:17.279Z,35.40
2018-02-07T22:56:51.228Z,36.30
2018-02-07T22:59:25.006Z,35.87
2018-02-07T23:01:59.857Z,35.13
2018-02-07T23:04:34.067Z,41.43
2018-02-07T23:07:07.994Z,37.50
2018-02-07T23:09:41.834Z,35.10
2018-02-07T23:12:15.604Z,37.63
2018-02-07T23:14:49.299Z,35.90
2018-02-07T23:17:23.074Z,36.77
2018-02-07T23:19:56.978Z,37.77
2018-02-07T23:22:31.649Z,36.47
2018-02-07T23:25:06.159Z,39.77
2018-02-07T23:27:40.555Z,36.23
2018-02-07T23:30:14.610Z,40.30
2018-02-07T23:32:49.206Z,35.97
2018-02-07T23:35:23.127Z,36.63
2018-02-07T23:37:57.856Z,34.17
2018-02-07T23:40:32.672Z,34.30
2018-02-07T23:43:07.123Z,35.73
2018-02-07T23:45:41.614Z,35.37
2018-02-07T23:48:15.867Z,34.53
2018-02-07T23:50:50.523Z,36.83
2018-02-07T23:53:24.712Z,34.73
2018-02-07T23:55:58.487Z,34.83
2018-02-07T23:58:32.315Z,39.27
